Time,TemperatureF,DewpointF,PressureIn,WindDirection,WindDirectionDegrees,WindSpeedMPH,WindSpeedGustMPH,Humidity,HourlyPrecipIn,Conditions,Clouds,dailyrainin,SoftwareType,DateUTC
2013-07-17 00:01:00,73.2,70.4,30.34,SW,236,0.0,0.0,91,0.00,,,0.00,Wunderground v.1.15,2013-07-17 04:01:00,
2013-07-17 00:02:00,73.2,70.4,30.35,WSW,237,0.0,0.0,91,0.00,,,0.00,Wunderground v.1.15,2013-07-17 04:02:00,
2013-07-17 00:06:00,73.1,70.6,30.35,WSW,237,0.0,0.0,92,0.00,,,0.00,Wunderground v.1.15,2013-07-17 04:06:00,
2013-07-17 00:07:00,73.1,70.6,30.34,WSW,237,0.0,0.0,92,0.00,,,0.00,Wunderground v.1.15,2013-07-17 04:07:00,
2013-07-17 00:09:00,73.1,70.6,30.34,WSW,237,0.0,0.0,92,0.00,,,0.00,Wunderground v.1.15,2013-07-17 04:09:00,
2013-07-17 00:11:00,73.1,70.6,30.35,N/A,-737280,0.0,-999.0,92,0.00,,,0.00,Wunderground v.1.15,2013-07-17 04:11:00,
2013-07-17 00:14:00,73.1,70.6,30.35,WSW,237,0.0,0.0,92,0.00,,,0.00,Wunderground v.1.15,2013-07-17 04:14:00,
2013-07-17 00:16:00,73.1,70.6,30.35,N/A,-737280,0.0,-999.0,92,0.00,,,0.00,Wunderground v.1.15,2013-07-17 04:16:00,
2013-07-17 00:19:00,73.1,70.6,30.35,SW,236,0.0,0.0,92,0.00,,,0.00,Wunderground v.1.15,2013-07-17 04:19:00,
2013-07-17 00:21:00,73.1,70.6,30.35,N/A,-737280,0.0,-999.0,92,0.00,,,0.00,Wunderground v.1.15,2013-07-17 04:21:00,
2013-07-17 00:25:00,73.0,70.5,30.35,SW,236,0.0,0.0,92,0.00,,,0.00,Wunderground v.1.15,2013-07-17 04:25:00,
2013-07-17 00:26:00,73.0,70.9,30.35,N/A,-737280,0.0,-999.0,93,0.00,,,0.00,Wunderground v.1.15,2013-07-17 04:26:00,
2013-07-17 00:30:00,73.0,70.9,30.35,SW,236,0.0,0.0,93,0.00,,,0.00,Wunderground v.1.15,2013-07-17 04:30:00,
2013-07-17 00:31:00,73.0,70.9,30.35,N/A,-737280,0.0,-999.0,93,0.00,,,0.00,Wunderground v.1.15,2013-07-17 04:31:00,
2013-07-17 00:35:00,73.0,70.9,30.35,SW,236,0.0,0.0,93,0.00,,,0.00,Wunderground v.1.15,2013-07-17 04:35:00,
2013-07-17 00:36:00,73.0,70.9,30.35,N/A,-737280,0.0,-999.0,93,0.00,,,0.00,Wunderground v.1.15,2013-07-17 04:36:00,
2013-07-17 00:41:00,72.9,70.8,30.34,WSW,237,0.0,0.0,93,0.00,,,0.00,Wunderground v.1.15,2013-07-17 04:41:00,
2013-07-17 00:46:00,72.9,70.8,30.34,N/A,-737280,0.0,-999.0,93,0.00,,,0.00,Wunderground v.1.15,2013-07-17 04:46:00,
2013-07-17 00:47:00,72.8,70.7,30.34,SW,236,0.0,0.0,93,0.00,,,0.00,Wunderground v.1.15,2013-07-17 04:47:00,
2013-07-17 00:51:00,72.9,70.8,30.34,N/A,-737280,0.0,-999.0,93,0.00,,,0.00,Wunderground v.1.15,2013-07-17 04:51:00,
2013-07-17 00:56:00,72.7,70.6,30.34,N/A,-737280,0.0,-999.0,93,0.00,,,0.00,Wunderground v.1.15,2013-07-17 04:56:00,
2013-07-17 01:01:00,72.7,70.6,30.34,N/A,-737280,0.0,-999.0,93,0.00,,,0.00,Wunderground v.1.15,2013-07-17 05:01:00,
2013-07-17 01:06:00,72.7,70.6,30.34,N/A,-737280,0.0,-999.0,93,0.00,,,0.00,Wunderground v.1.15,2013-07-17 05:06:00,
2013-07-17 01:11:00,72.8,70.7,30.34,N/A,-737280,0.0,-999.0,93,0.00,,,0.00,Wunderground v.1.15,2013-07-17 05:11:00,
2013-07-17 01:16:00,72.8,70.7,30.34,N/A,-737280,0.0,-999.0,93,0.00,,,0.00,Wunderground v.1.15,2013-07-17 05:16:00,
2013-07-17 01:21:00,72.8,70.7,30.34,N/A,-737280,0.0,-999.0,93,0.00,,,0.00,Wunderground v.1.15,2013-07-17 05:21:00,
2013-07-17 01:26:00,72.7,70.9,30.33,N/A,-737280,0.0,-999.0,94,0.00,,,0.00,Wunderground v.1.15,2013-07-17 05:26:00,
2013-07-17 01:31:00,72.7,70.9,30.33,N/A,-737280,0.0,-999.0,94,0.00,,,0.00,Wunderground v.1.15,2013-07-17 05:31:00,
2013-07-17 01:36:00,72.7,70.9,30.33,N/A,-737280,0.0,-999.0,94,0.00,,,0.00,Wunderground v.1.15,2013-07-17 05:36:00,
2013-07-17 01:41:00,72.4,70.9,30.34,N/A,-737280,0.0,-999.0,95,0.00,,,0.00,Wunderground v.1.15,2013-07-17 05:41:00,
2013-07-17 01:46:00,72.4,70.9,30.34,N/A,-737280,0.0,-999.0,95,0.00,,,0.00,Wunderground v.1.15,2013-07-17 05:46:00,
2013-07-17 01:51:00,72.4,70.9,30.34,N/A,-737280,0.0,-999.0,95,0.00,,,0.00,Wunderground v.1.15,2013-07-17 05:51:00,
2013-07-17 01:56:00,72.0,70.5,30.33,N/A,-737280,0.0,-999.0,95,0.00,,,0.00,Wunderground v.1.15,2013-07-17 05:56:00,
2013-07-17 02:01:00,72.0,70.5,30.33,N/A,-737280,0.0,-999.0,95,0.00,,,0.00,Wunderground v.1.15,2013-07-17 06:01:00,
2013-07-17 02:06:00,72.0,70.5,30.33,N/A,-737280,0.0,-999.0,95,0.00,,,0.00,Wunderground v.1.15,2013-07-17 06:06:00,
2013-07-17 02:11:00,71.7,70.5,30.33,N/A,-737280,0.0,-999.0,96,0.00,,,0.00,Wunderground v.1.15,2013-07-17 06:11:00,
2013-07-17 02:16:00,71.7,70.5,30.33,N/A,-737280,0.0,-999.0,96,0.00,,,0.00,Wunderground v.1.15,2013-07-17 06:16:00,
2013-07-17 02:21:00,71.7,70.5,30.33,N/A,-737280,0.0,-999.0,96,0.00,,,0.00,Wunderground v.1.15,2013-07-17 06:21:00,
2013-07-17 02:26:00,71.5,70.3,30.33,N/A,-737280,0.0,-999.0,96,0.00,,,0.00,Wunderground v.1.15,2013-07-17 06:26:00,
2013-07-17 02:31:00,71.5,70.3,30.33,N/A,-737280,0.0,-999.0,96,0.00,,,0.00,Wunderground v.1.15,2013-07-17 06:31:00,
2013-07-17 02:36:00,71.5,70.3,30.33,N/A,-737280,0.0,-999.0,96,0.00,,,0.00,Wunderground v.1.15,2013-07-17 06:36:00,
2013-07-17 02:41:00,71.4,70.2,30.33,N/A,-737280,0.0,-999.0,96,0.00,,,0.00,Wunderground v.1.15,2013-07-17 06:41:00,
2013-07-17 02:46:00,71.4,70.2,30.33,N/A,-737280,0.0,-999.0,96,0.00,,,0.00,Wunderground v.1.15,2013-07-17 06:46:00,
2013-07-17 02:51:00,71.4,70.2,30.33,N/A,-737280,0.0,-999.0,96,0.00,,,0.00,Wunderground v.1.15,2013-07-17 06:51:00,
2013-07-17 02:56:00,71.3,70.1,30.33,N/A,-737280,0.0,-999.0,96,0.00,,,0.00,Wunderground v.1.15,2013-07-17 06:56:00,
2013-07-17 03:01:00,71.3,70.1,30.33,N/A,-737280,0.0,-999.0,96,0.00,,,0.00,Wunderground v.1.15,2013-07-17 07:01:00,
2013-07-17 03:06:00,71.3,70.1,30.33,N/A,-737280,0.0,-999.0,96,0.00,,,0.00,Wunderground v.1.15,2013-07-17 07:06:00,
2013-07-17 03:11:00,71.0,70.1,30.32,N/A,-737280,0.0,-999.0,97,0.00,,,0.00,Wunderground v.1.15,2013-07-17 07:11:00,
2013-07-17 03:16:00,71.0,70.1,30.32,N/A,-737280,0.0,-999.0,97,0.00,,,0.00,Wunderground v.1.15,2013-07-17 07:16:00,
2013-07-17 03:21:00,71.0,70.1,30.32,N/A,-737280,0.0,-999.0,97,0.00,,,0.00,Wunderground v.1.15,2013-07-17 07:21:00,
2013-07-17 03:26:00,70.4,69.8,30.32,N/A,-737280,0.0,-999.0,98,0.00,,,0.00,Wunderground v.1.15,2013-07-17 07:26:00,
2013-07-17 03:31:00,70.4,69.8,30.32,N/A,-737280,0.0,-999.0,98,0.00,,,0.00,Wunderground v.1.15,2013-07-17 07:31:00,
2013-07-17 03:36:00,70.4,69.8,30.32,N/A,-737280,0.0,-999.0,98,0.00,,,0.00,Wunderground v.1.15,2013-07-17 07:36:00,
2013-07-17 03:41:00,70.1,69.5,30.32,N/A,-737280,0.0,-999.0,98,0.00,,,0.00,Wunderground v.1.15,2013-07-17 07:41:00,
2013-07-17 03:46:00,70.1,69.5,30.32,N/A,-737280,0.0,-999.0,98,0.00,,,0.00,Wunderground v.1.15,2013-07-17 07:46:00,
2013-07-17 03:51:00,70.1,69.5,30.32,N/A,-737280,0.0,-999.0,98,0.00,,,0.00,Wunderground v.1.15,2013-07-17 07:51:00,
2013-07-17 03:56:00,69.8,69.2,30.33,N/A,-737280,0.0,-999.0,98,0.00,,,0.00,Wunderground v.1.15,2013-07-17 07:56:00,
2013-07-17 04:01:00,69.8,69.2,30.33,N/A,-737280,0.0,-999.0,98,0.00,,,0.00,Wunderground v.1.15,2013-07-17 08:01:00,
2013-07-17 04:06:00,69.8,69.2,30.33,N/A,-737280,0.0,-999.0,98,0.00,,,0.00,Wunderground v.1.15,2013-07-17 08:06:00,
2013-07-17 04:11:00,69.4,68.8,30.33,N/A,-737280,0.0,-999.0,98,0.00,,,0.00,Wunderground v.1.15,2013-07-17 08:11:00,
2013-07-17 04:16:00,69.4,68.8,30.33,N/A,-737280,0.0,-999.0,98,0.00,,,0.00,Wunderground v.1.15,2013-07-17 08:16:00,
2013-07-17 04:21:00,69.4,68.8,30.33,N/A,-737280,0.0,-999.0,98,0.00,,,0.00,Wunderground v.1.15,2013-07-17 08:21:00,
2013-07-17 04:26:00,69.2,68.6,30.34,N/A,-737280,0.0,-999.0,98,0.00,,,0.00,Wunderground v.1.15,2013-07-17 08:26:00,
2013-07-17 04:31:00,69.2,68.6,30.34,N/A,-737280,0.0,-999.0,98,0.00,,,0.00,Wunderground v.1.15,2013-07-17 08:31:00,
2013-07-17 04:36:00,69.2,68.6,30.34,N/A,-737280,0.0,-999.0,98,0.00,,,0.00,Wunderground v.1.15,2013-07-17 08:36:00,
2013-07-17 04:41:00,68.9,68.6,30.34,N/A,-737280,0.0,-999.0,99,0.00,,,0.00,Wunderground v.1.15,2013-07-17 08:41:00,
2013-07-17 04:46:00,68.9,68.6,30.34,N/A,-737280,0.0,-999.0,99,0.00,,,0.00,Wunderground v.1.15,2013-07-17 08:46:00,
2013-07-17 04:51:00,68.9,68.6,30.34,N/A,-737280,0.0,-999.0,99,0.00,,,0.00,Wunderground v.1.15,2013-07-17 08:51:00,
2013-07-17 04:56:00,68.9,68.6,30.34,N/A,-737280,0.0,-999.0,99,0.00,,,0.00,Wunderground v.1.15,2013-07-17 08:56:00,
2013-07-17 05:01:00,68.9,68.6,30.34,N/A,-737280,0.0,-999.0,99,0.00,,,0.00,Wunderground v.1.15,2013-07-17 09:01:00,
2013-07-17 05:06:00,68.9,68.6,30.34,N/A,-737280,0.0,-999.0,99,0.00,,,0.00,Wunderground v.1.15,2013-07-17 09:06:00,
2013-07-17 05:11:00,68.6,68.3,30.35,N/A,-737280,0.0,-999.0,99,0.00,,,0.00,Wunderground v.1.15,2013-07-17 09:11:00,
2013-07-17 05:16:00,68.6,68.3,30.35,N/A,-737280,0.0,-999.0,99,0.00,,,0.00,Wunderground v.1.15,2013-07-17 09:16:00,
2013-07-17 05:21:00,68.6,68.3,30.35,N/A,-737280,0.0,-999.0,99,0.00,,,0.00,Wunderground v.1.15,2013-07-17 09:21:00,
2013-07-17 05:26:00,68.5,68.2,30.35,N/A,-737280,0.0,-999.0,99,0.00,,,0.00,Wunderground v.1.15,2013-07-17 09:26:00,
2013-07-17 05:31:00,68.5,68.2,30.35,N/A,-737280,0.0,-999.0,99,0.00,,,0.00,Wunderground v.1.15,2013-07-17 09:31:00,
2013-07-17 05:36:00,68.5,68.2,30.35,N/A,-737280,0.0,-999.0,99,0.00,,,0.00,Wunderground v.1.15,2013-07-17 09:36:00,
2013-07-17 05:41:00,68.4,68.1,30.35,N/A,-737280,0.0,-999.0,99,0.00,,,0.00,Wunderground v.1.15,2013-07-17 09:41:00,
2013-07-17 05:46:00,68.4,68.1,30.35,N/A,-737280,0.0,-999.0,99,0.00,,,0.00,Wunderground v.1.15,2013-07-17 09:46:00,
2013-07-17 05:51:00,68.4,68.1,30.35,N/A,-737280,0.0,-999.0,99,0.00,,,0.00,Wunderground v.1.15,2013-07-17 09:51:00,
2013-07-17 05:56:00,68.2,67.9,30.35,N/A,-737280,0.0,-999.0,99,0.00,,,0.00,Wunderground v.1.15,2013-07-17 09:56:00,
2013-07-17 06:01:00,68.2,67.9,30.35,N/A,-737280,0.0,-999.0,99,0.00,,,0.00,Wunderground v.1.15,2013-07-17 10:01:00,
2013-07-17 06:06:00,68.2,67.9,30.35,N/A,-737280,0.0,-999.0,99,0.00,,,0.00,Wunderground v.1.15,2013-07-17 10:06:00,
2013-07-17 06:11:00,68.1,67.8,30.36,N/A,-737280,0.0,-999.0,99,0.00,,,0.00,Wunderground v.1.15,2013-07-17 10:11:00,
2013-07-17 06:16:00,68.1,67.8,30.36,N/A,-737280,0.0,-999.0,99,0.00,,,0.00,Wunderground v.1.15,2013-07-17 10:16:00,
2013-07-17 06:21:00,68.1,67.8,30.36,N/A,-737280,0.0,-999.0,99,0.00,,,0.00,Wunderground v.1.15,2013-07-17 10:21:00,
2013-07-17 06:26:00,68.1,67.8,30.36,N/A,-737280,0.0,-999.0,99,0.00,,,0.00,Wunderground v.1.15,2013-07-17 10:26:00,
2013-07-17 06:31:00,68.1,67.8,30.36,N/A,-737280,0.0,-999.0,99,0.00,,,0.00,Wunderground v.1.15,2013-07-17 10:31:00,
2013-07-17 06:36:00,68.1,67.8,30.36,N/A,-737280,0.0,-999.0,99,0.00,,,0.00,Wunderground v.1.15,2013-07-17 10:36:00,
2013-07-17 06:41:00,68.2,67.9,30.36,N/A,-737280,0.0,-999.0,99,0.00,,,0.00,Wunderground v.1.15,2013-07-17 10:41:00,
2013-07-17 06:46:00,68.2,67.9,30.36,N/A,-737280,0.0,-999.0,99,0.00,,,0.00,Wunderground v.1.15,2013-07-17 10:46:00,
2013-07-17 06:49:00,68.3,68.0,30.36,SW,236,0.0,0.0,99,0.00,,,0.00,Wunderground v.1.15,2013-07-17 10:49:00,
2013-07-17 06:51:00,68.2,67.9,30.36,N/A,-737280,0.0,-999.0,99,0.00,,,0.00,Wunderground v.1.15,2013-07-17 10:51:00,
2013-07-17 06:56:00,68.3,68.0,30.36,N/A,-737280,0.0,-999.0,99,0.00,,,0.00,Wunderground v.1.15,2013-07-17 10:56:00,
2013-07-17 07:01:00,68.3,68.0,30.36,N/A,-737280,0.0,-999.0,99,0.00,,,0.00,Wunderground v.1.15,2013-07-17 11:01:00,
2013-07-17 07:06:00,68.3,68.0,30.36,N/A,-737280,0.0,-999.0,99,0.00,,,0.00,Wunderground v.1.15,2013-07-17 11:06:00,
2013-07-17 07:11:00,68.4,68.1,30.36,N/A,-737280,0.0,-999.0,99,0.00,,,0.00,Wunderground v.1.15,2013-07-17 11:11:00,
2013-07-17 07:16:00,68.4,68.1,30.36,N/A,-737280,0.0,-999.0,99,0.00,,,0.00,Wunderground v.1.15,2013-07-17 11:16:00,
2013-07-17 07:21:00,68.4,68.1,30.36,N/A,-737280,0.0,-999.0,99,0.00,,,0.00,Wunderground v.1.15,2013-07-17 11:21:00,
2013-07-17 07:26:00,68.6,68.3,30.36,SSE,158,0.0,-999.0,99,0.00,,,0.00,Wunderground v.1.15,2013-07-17 11:26:00,
2013-07-17 07:31:00,68.6,68.3,30.36,SSE,158,0.0,-999.0,99,0.00,,,0.00,Wunderground v.1.15,2013-07-17 11:31:00,
2013-07-17 07:36:00,68.6,68.3,30.36,SSE,158,0.0,-999.0,99,0.00,,,0.00,Wunderground v.1.15,2013-07-17 11:36:00,
2013-07-17 07:41:00,68.9,68.6,30.37,N/A,-737280,0.0,-999.0,99,0.00,,,0.00,Wunderground v.1.15,2013-07-17 11:41:00,
2013-07-17 07:46:00,68.9,68.6,30.37,N/A,-737280,0.0,-999.0,99,0.00,,,0.00,Wunderground v.1.15,2013-07-17 11:46:00,
2013-07-17 07:51:00,68.9,68.6,30.37,N/A,-737280,0.0,-999.0,99,0.00,,,0.00,Wunderground v.1.15,2013-07-17 11:51:00,
2013-07-17 07:56:00,69.4,69.1,30.37,N/A,-737280,0.0,-999.0,99,0.00,,,0.00,Wunderground v.1.15,2013-07-17 11:56:00,
2013-07-17 08:01:00,69.4,69.1,30.37,N/A,-737280,0.0,-999.0,99,0.00,,,0.00,Wunderground v.1.15,2013-07-17 12:01:00,
2013-07-17 08:06:00,69.4,69.1,30.37,N/A,-737280,0.0,-999.0,99,0.00,,,0.00,Wunderground v.1.15,2013-07-17 12:06:00,
2013-07-17 08:11:00,69.8,69.5,30.37,N/A,-737280,0.0,-999.0,99,0.00,,,0.00,Wunderground v.1.15,2013-07-17 12:11:00,
2013-07-17 08:16:00,69.8,69.5,30.37,N/A,-737280,0.0,-999.0,99,0.00,,,0.00,Wunderground v.1.15,2013-07-17 12:16:00,
2013-07-17 08:21:00,69.8,69.5,30.37,N/A,-737280,0.0,-999.0,99,0.00,,,0.00,Wunderground v.1.15,2013-07-17 12:21:00,
2013-07-17 08:26:00,70.3,70.0,30.38,N/A,-737280,0.0,-999.0,99,0.00,,,0.00,Wunderground v.1.15,2013-07-17 12:26:00,
2013-07-17 08:31:00,70.3,70.0,30.38,N/A,-737280,0.0,-999.0,99,0.00,,,0.00,Wunderground v.1.15,2013-07-17 12:31:00,
2013-07-17 08:36:00,70.3,70.0,30.38,N/A,-737280,0.0,-999.0,99,0.00,,,0.00,Wunderground v.1.15,2013-07-17 12:36:00,
2013-07-17 08:41:00,70.8,70.5,30.38,N/A,-737280,0.0,-999.0,99,0.00,,,0.00,Wunderground v.1.15,2013-07-17 12:41:00,
2013-07-17 08:46:00,70.8,70.5,30.38,N/A,-737280,0.0,-999.0,99,0.00,,,0.00,Wunderground v.1.15,2013-07-17 12:46:00,
2013-07-17 08:51:00,70.8,70.5,30.38,N/A,-737280,0.0,-999.0,99,0.00,,,0.00,Wunderground v.1.15,2013-07-17 12:51:00,
2013-07-17 08:56:00,71.3,70.7,30.38,West,270,0.0,-999.0,98,0.00,,,0.00,Wunderground v.1.15,2013-07-17 12:56:00,
2013-07-17 09:01:00,71.3,70.7,30.38,West,270,0.0,-999.0,98,0.00,,,0.00,Wunderground v.1.15,2013-07-17 13:01:00,
2013-07-17 09:06:00,71.3,70.7,30.38,West,270,0.0,-999.0,98,0.00,,,0.00,Wunderground v.1.15,2013-07-17 13:06:00,
2013-07-17 09:11:00,72.1,71.2,30.38,West,270,0.0,-999.0,97,0.00,,,0.00,Wunderground v.1.15,2013-07-17 13:11:00,
2013-07-17 09:16:00,72.1,71.2,30.38,West,270,0.0,-999.0,97,0.00,,,0.00,Wunderground v.1.15,2013-07-17 13:16:00,
2013-07-17 09:21:00,72.1,71.2,30.38,West,270,0.0,-999.0,97,0.00,,,0.00,Wunderground v.1.15,2013-07-17 13:21:00,
2013-07-17 09:26:00,73.0,71.5,30.38,N/A,-737280,0.0,-999.0,95,0.00,,,0.00,Wunderground v.1.15,2013-07-17 13:26:00,
2013-07-17 09:31:00,73.0,71.5,30.38,N/A,-737280,0.0,-999.0,95,0.00,,,0.00,Wunderground v.1.15,2013-07-17 13:31:00,
2013-07-17 09:36:00,73.0,71.5,30.38,N/A,-737280,0.0,-999.0,95,0.00,,,0.00,Wunderground v.1.15,2013-07-17 13:36:00,
2013-07-17 09:41:00,74.2,72.0,30.38,N/A,-737280,0.0,-999.0,93,0.00,,,0.00,Wunderground v.1.15,2013-07-17 13:41:00,
2013-07-17 09:46:00,74.2,72.0,30.38,N/A,-737280,0.0,-999.0,93,0.00,,,0.00,Wunderground v.1.15,2013-07-17 13:46:00,
2013-07-17 09:51:00,74.2,72.0,30.38,N/A,-737280,0.0,-999.0,93,0.00,,,0.00,Wunderground v.1.15,2013-07-17 13:51:00,
2013-07-17 09:56:00,75.2,72.4,30.37,N/A,-737280,0.0,-999.0,91,0.00,,,0.00,Wunderground v.1.15,2013-07-17 13:56:00,
2013-07-17 10:01:00,75.2,72.4,30.37,N/A,-737280,0.0,-999.0,91,0.00,,,0.00,Wunderground v.1.15,2013-07-17 14:01:00,
2013-07-17 10:06:00,75.2,72.4,30.37,N/A,-737280,0.0,-999.0,91,0.00,,,0.00,Wunderground v.1.15,2013-07-17 14:06:00,
2013-07-17 10:11:00,76.1,73.0,30.37,West,270,0.0,-999.0,90,0.00,,,0.00,Wunderground v.1.15,2013-07-17 14:11:00,
2013-07-17 10:16:00,76.1,73.0,30.37,West,270,0.0,-999.0,90,0.00,,,0.00,Wunderground v.1.15,2013-07-17 14:16:00,
2013-07-17 10:21:00,76.1,73.0,30.37,West,270,0.0,-999.0,90,0.00,,,0.00,Wunderground v.1.15,2013-07-17 14:21:00,
2013-07-17 10:26:00,77.1,72.6,30.37,West,270,0.0,-999.0,86,0.00,,,0.00,Wunderground v.1.15,2013-07-17 14:26:00,
2013-07-17 10:31:00,77.1,72.6,30.37,West,270,0.0,-999.0,86,0.00,,,0.00,Wunderground v.1.15,2013-07-17 14:31:00,
2013-07-17 10:36:00,77.1,72.6,30.37,West,270,0.0,-999.0,86,0.00,,,0.00,Wunderground v.1.15,2013-07-17 14:36:00,
2013-07-17 10:41:00,78.0,73.5,30.36,West,270,0.0,-999.0,86,0.00,,,0.00,Wunderground v.1.15,2013-07-17 14:41:00,
2013-07-17 10:46:00,78.0,73.5,30.36,West,270,0.0,-999.0,86,0.00,,,0.00,Wunderground v.1.15,2013-07-17 14:46:00,
2013-07-17 10:51:00,78.0,73.5,30.36,West,270,0.0,-999.0,86,0.00,,,0.00,Wunderground v.1.15,2013-07-17 14:51:00,
2013-07-17 10:56:00,78.5,73.3,30.36,West,270,1.0,-999.0,84,0.00,,,0.00,Wunderground v.1.15,2013-07-17 14:56:00,
2013-07-17 11:01:00,78.5,73.3,30.36,West,270,1.0,-999.0,84,0.00,,,0.00,Wunderground v.1.15,2013-07-17 15:01:00,
2013-07-17 11:06:00,78.5,73.3,30.36,West,270,1.0,-999.0,84,0.00,,,0.00,Wunderground v.1.15,2013-07-17 15:06:00,
2013-07-17 11:11:00,79.4,73.1,30.35,West,270,0.0,-999.0,81,0.00,,,0.00,Wunderground v.1.15,2013-07-17 15:11:00,
2013-07-17 11:16:00,79.4,73.1,30.35,West,270,0.0,-999.0,81,0.00,,,0.00,Wunderground v.1.15,2013-07-17 15:16:00,
2013-07-17 11:21:00,79.4,73.1,30.35,West,270,0.0,-999.0,81,0.00,,,0.00,Wunderground v.1.15,2013-07-17 15:21:00,
2013-07-17 11:26:00,80.2,73.5,30.35,N/A,-737280,0.0,-999.0,80,0.00,,,0.00,Wunderground v.1.15,2013-07-17 15:26:00,
2013-07-17 11:31:00,80.2,73.5,30.35,N/A,-737280,0.0,-999.0,80,0.00,,,0.00,Wunderground v.1.15,2013-07-17 15:31:00,
2013-07-17 11:36:00,80.2,73.5,30.35,N/A,-737280,0.0,-999.0,80,0.00,,,0.00,Wunderground v.1.15,2013-07-17 15:36:00,
2013-07-17 11:41:00,80.5,72.6,30.35,N/A,-737280,0.0,-999.0,77,0.00,,,0.00,Wunderground v.1.15,2013-07-17 15:41:00,
2013-07-17 11:46:00,80.5,72.6,30.35,N/A,-737280,0.0,-999.0,77,0.00,,,0.00,Wunderground v.1.15,2013-07-17 15:46:00,
2013-07-17 11:51:00,80.5,72.6,30.35,N/A,-737280,0.0,-999.0,77,0.00,,,0.00,Wunderground v.1.15,2013-07-17 15:51:00,
2013-07-17 11:56:00,80.7,72.0,30.34,N/A,-737280,0.0,-999.0,75,0.00,,,0.00,Wunderground v.1.15,2013-07-17 15:56:00,
2013-07-17 12:01:00,80.7,72.0,30.34,N/A,-737280,0.0,-999.0,75,0.00,,,0.00,Wunderground v.1.15,2013-07-17 16:01:00,
2013-07-17 12:06:00,80.7,72.0,30.34,N/A,-737280,0.0,-999.0,75,0.00,,,0.00,Wunderground v.1.15,2013-07-17 16:06:00,
2013-07-17 12:11:00,81.2,70.9,30.34,N/A,-737280,0.0,-999.0,71,0.00,,,0.00,Wunderground v.1.15,2013-07-17 16:11:00,
2013-07-17 12:16:00,81.2,70.9,30.34,N/A,-737280,0.0,-999.0,71,0.00,,,0.00,Wunderground v.1.15,2013-07-17 16:16:00,
2013-07-17 12:21:00,81.2,70.9,30.34,N/A,-737280,0.0,-999.0,71,0.00,,,0.00,Wunderground v.1.15,2013-07-17 16:21:00,
2013-07-17 12:26:00,81.5,71.6,30.34,NW,315,0.0,-999.0,72,0.00,,,0.00,Wunderground v.1.15,2013-07-17 16:26:00,
2013-07-17 12:31:00,81.5,71.6,30.34,NW,315,0.0,-999.0,72,0.00,,,0.00,Wunderground v.1.15,2013-07-17 16:31:00,
2013-07-17 12:36:00,81.5,71.6,30.34,NW,315,0.0,-999.0,72,0.00,,,0.00,Wunderground v.1.15,2013-07-17 16:36:00,
2013-07-17 12:41:00,82.3,71.5,30.34,NW,315,0.0,-999.0,70,0.00,,,0.00,Wunderground v.1.15,2013-07-17 16:41:00,
2013-07-17 12:46:00,82.3,71.5,30.34,NW,315,0.0,-999.0,70,0.00,,,0.00,Wunderground v.1.15,2013-07-17 16:46:00,
2013-07-17 12:51:00,82.3,71.5,30.34,NW,315,0.0,-999.0,70,0.00,,,0.00,Wunderground v.1.15,2013-07-17 16:51:00,
2013-07-17 12:56:00,83.3,71.6,30.33,N/A,-737280,0.0,-999.0,68,0.00,,,0.00,Wunderground v.1.15,2013-07-17 16:56:00,
2013-07-17 13:01:00,83.3,71.6,30.33,N/A,-737280,0.0,-999.0,68,0.00,,,0.00,Wunderground v.1.15,2013-07-17 17:01:00,
2013-07-17 13:06:00,83.3,71.6,30.33,N/A,-737280,0.0,-999.0,68,0.00,,,0.00,Wunderground v.1.15,2013-07-17 17:06:00,
2013-07-17 13:11:00,84.1,74.1,30.33,N/A,-737280,0.0,-999.0,72,0.00,,,0.00,Wunderground v.1.15,2013-07-17 17:11:00,
2013-07-17 13:16:00,84.1,74.1,30.33,N/A,-737280,0.0,-999.0,72,0.00,,,0.00,Wunderground v.1.15,2013-07-17 17:16:00,
2013-07-17 13:21:00,84.1,74.1,30.33,N/A,-737280,0.0,-999.0,72,0.00,,,0.00,Wunderground v.1.15,2013-07-17 17:21:00,
2013-07-17 13:26:00,86.7,74.4,30.33,WNW,293,0.0,-999.0,67,0.00,,,0.00,Wunderground v.1.15,2013-07-17 17:26:00,
2013-07-17 13:31:00,86.7,74.4,30.33,WNW,293,0.0,-999.0,67,0.00,,,0.00,Wunderground v.1.15,2013-07-17 17:31:00,
2013-07-17 13:36:00,86.7,74.4,30.33,WNW,293,0.0,-999.0,67,0.00,,,0.00,Wunderground v.1.15,2013-07-17 17:36:00,
2013-07-17 13:41:00,87.8,74.1,30.33,NNW,338,0.0,-999.0,64,0.00,,,0.00,Wunderground v.1.15,2013-07-17 17:41:00,
2013-07-17 13:46:00,87.8,74.1,30.33,NNW,338,0.0,-999.0,64,0.00,,,0.00,Wunderground v.1.15,2013-07-17 17:46:00,
2013-07-17 13:51:00,87.8,74.1,30.33,NNW,338,0.0,-999.0,64,0.00,,,0.00,Wunderground v.1.15,2013-07-17 17:51:00,
2013-07-17 13:56:00,87.0,74.3,30.32,N/A,-737280,0.0,-999.0,66,0.00,,,0.00,Wunderground v.1.15,2013-07-17 17:56:00,
2013-07-17 14:01:00,87.0,74.3,30.32,N/A,-737280,0.0,-999.0,66,0.00,,,0.00,Wunderground v.1.15,2013-07-17 18:01:00,
2013-07-17 14:06:00,87.0,74.3,30.32,N/A,-737280,0.0,-999.0,66,0.00,,,0.00,Wunderground v.1.15,2013-07-17 18:06:00,
2013-07-17 14:11:00,87.1,74.4,30.32,NNW,338,0.0,-999.0,66,0.00,,,0.00,Wunderground v.1.15,2013-07-17 18:11:00,
2013-07-17 14:16:00,87.1,74.4,30.32,NNW,338,0.0,-999.0,66,0.00,,,0.00,Wunderground v.1.15,2013-07-17 18:16:00,
2013-07-17 14:21:00,87.1,74.4,30.32,NNW,338,0.0,-999.0,66,0.00,,,0.00,Wunderground v.1.15,2013-07-17 18:21:00,
2013-07-17 14:26:00,89.4,74.7,30.31,NW,315,0.0,-999.0,62,0.00,,,0.00,Wunderground v.1.15,2013-07-17 18:26:00,
2013-07-17 14:31:00,89.4,74.7,30.31,NW,315,0.0,-999.0,62,0.00,,,0.00,Wunderground v.1.15,2013-07-17 18:31:00,
2013-07-17 14:36:00,89.4,74.7,30.31,NW,315,0.0,-999.0,62,0.00,,,0.00,Wunderground v.1.15,2013-07-17 18:36:00,
2013-07-17 14:41:00,91.8,75.9,30.30,N/A,-737280,0.0,-999.0,60,0.00,,,0.00,Wunderground v.1.15,2013-07-17 18:41:00,
2013-07-17 14:46:00,91.8,75.9,30.30,N/A,-737280,0.0,-999.0,60,0.00,,,0.00,Wunderground v.1.15,2013-07-17 18:46:00,
2013-07-17 14:51:00,91.8,75.9,30.30,N/A,-737280,0.0,-999.0,60,0.00,,,0.00,Wunderground v.1.15,2013-07-17 18:51:00,
2013-07-17 14:56:00,93.4,76.4,30.30,N/A,-737280,0.0,-999.0,58,0.00,,,0.00,Wunderground v.1.15,2013-07-17 18:56:00,
2013-07-17 15:01:00,93.4,76.4,30.30,N/A,-737280,0.0,-999.0,58,0.00,,,0.00,Wunderground v.1.15,2013-07-17 19:01:00,
2013-07-17 15:06:00,93.4,76.4,30.30,N/A,-737280,0.0,-999.0,58,0.00,,,0.00,Wunderground v.1.15,2013-07-17 19:06:00,
2013-07-17 15:11:00,94.2,74.4,30.29,N/A,-737280,0.0,-999.0,53,0.00,,,0.00,Wunderground v.1.15,2013-07-17 19:11:00,
2013-07-17 15:16:00,94.2,74.4,30.29,N/A,-737280,0.0,-999.0,53,0.00,,,0.00,Wunderground v.1.15,2013-07-17 19:16:00,
2013-07-17 15:21:00,94.2,74.4,30.29,N/A,-737280,0.0,-999.0,53,0.00,,,0.00,Wunderground v.1.15,2013-07-17 19:21:00,
2013-07-17 15:26:00,91.3,75.0,30.30,N/A,-737280,0.0,-999.0,59,0.00,,,0.00,Wunderground v.1.15,2013-07-17 19:26:00,
2013-07-17 15:31:00,91.3,75.0,30.30,N/A,-737280,0.0,-999.0,59,0.00,,,0.00,Wunderground v.1.15,2013-07-17 19:31:00,
2013-07-17 15:36:00,91.3,75.0,30.30,N/A,-737280,0.0,-999.0,59,0.00,,,0.00,Wunderground v.1.15,2013-07-17 19:36:00,
2013-07-17 15:41:00,92.9,77.0,30.30,NW,315,0.0,-999.0,60,0.00,,,0.00,Wunderground v.1.15,2013-07-17 19:41:00,
2013-07-17 15:46:00,92.9,77.0,30.30,NW,315,0.0,-999.0,60,0.00,,,0.00,Wunderground v.1.15,2013-07-17 19:46:00,
2013-07-17 15:51:00,92.9,77.0,30.30,NW,315,0.0,-999.0,60,0.00,,,0.00,Wunderground v.1.15,2013-07-17 19:51:00,
2013-07-17 15:56:00,93.3,77.3,30.30,NW,315,0.0,-999.0,60,0.00,,,0.00,Wunderground v.1.15,2013-07-17 19:56:00,
2013-07-17 16:01:00,93.3,77.3,30.30,NW,315,0.0,-999.0,60,0.00,,,0.00,Wunderground v.1.15,2013-07-17 20:01:00,
2013-07-17 16:06:00,93.3,77.3,30.30,NW,315,0.0,-999.0,60,0.00,,,0.00,Wunderground v.1.15,2013-07-17 20:06:00,
2013-07-17 16:11:00,91.0,76.2,30.30,NW,315,0.0,-999.0,62,0.00,,,0.00,Wunderground v.1.15,2013-07-17 20:11:00,
2013-07-17 16:16:00,91.0,76.2,30.30,NW,315,0.0,-999.0,62,0.00,,,0.00,Wunderground v.1.15,2013-07-17 20:16:00,
2013-07-17 16:21:00,91.0,76.2,30.30,NW,315,0.0,-999.0,62,0.00,,,0.00,Wunderground v.1.15,2013-07-17 20:21:00,
2013-07-17 16:22:00,88.5,74.8,30.29,NNE,32,1.0,3.0,64,0.00,,,0.00,Wunderground v.1.15,2013-07-17 20:22:00,
2013-07-17 16:26:00,87.9,74.2,30.28,NNW,338,0.0,-999.0,64,0.00,,,0.00,Wunderground v.1.15,2013-07-17 20:26:00,
2013-07-17 16:28:00,87.4,73.3,30.28,NNW,328,1.0,3.0,63,0.00,,,0.00,Wunderground v.1.15,2013-07-17 20:28:00,
2013-07-17 16:31:00,87.9,74.2,30.28,NNW,338,0.0,-999.0,64,0.00,,,0.00,Wunderground v.1.15,2013-07-17 20:31:00,
2013-07-17 16:33:00,87.8,74.6,30.27,NW,325,0.0,1.0,65,0.00,,,0.00,Wunderground v.1.15,2013-07-17 20:33:00,
2013-07-17 16:36:00,87.9,74.2,30.28,NNW,338,0.0,-999.0,64,0.00,,,0.00,Wunderground v.1.15,2013-07-17 20:36:00,
2013-07-17 16:39:00,88.1,74.4,30.28,NW,323,0.0,1.0,64,0.00,,,0.00,Wunderground v.1.15,2013-07-17 20:39:00,
2013-07-17 16:41:00,88.0,77.0,30.27,NW,315,0.0,-999.0,70,0.00,,,0.00,Wunderground v.1.15,2013-07-17 20:41:00,
2013-07-17 16:45:00,88.9,77.8,30.27,NW,316,0.0,0.0,70,0.00,,,0.00,Wunderground v.1.15,2013-07-17 20:45:00,
2013-07-17 16:46:00,88.0,77.0,30.27,NW,315,0.0,-999.0,70,0.00,,,0.00,Wunderground v.1.15,2013-07-17 20:46:00,
2013-07-17 16:51:00,90.2,77.8,30.27,WNW,303,0.0,0.0,67,0.00,,,0.00,Wunderground v.1.15,2013-07-17 20:51:00,
2013-07-17 16:56:00,90.2,74.9,30.26,WNW,293,0.0,-999.0,61,0.00,,,0.00,Wunderground v.1.15,2013-07-17 20:56:00,
2013-07-17 16:57:00,90.7,76.4,30.27,WNW,292,0.0,1.0,63,0.00,,,0.00,Wunderground v.1.15,2013-07-17 20:57:00,
2013-07-17 17:01:00,90.2,74.9,30.26,WNW,293,0.0,-999.0,61,0.00,,,0.00,Wunderground v.1.15,2013-07-17 21:01:00,
2013-07-17 17:03:00,89.2,74.5,30.27,WNW,292,0.0,0.0,62,0.00,,,0.00,Wunderground v.1.15,2013-07-17 21:03:00,
2013-07-17 17:06:00,90.2,74.9,30.26,WNW,293,0.0,-999.0,61,0.00,,,0.00,Wunderground v.1.15,2013-07-17 21:06:00,
2013-07-17 17:09:00,88.4,74.7,30.26,WNW,292,0.0,0.0,64,0.00,,,0.00,Wunderground v.1.15,2013-07-17 21:09:00,
2013-07-17 17:11:00,88.7,76.3,30.26,N/A,-737280,0.0,-999.0,67,0.00,,,0.00,Wunderground v.1.15,2013-07-17 21:11:00,
2013-07-17 17:16:00,88.7,76.3,30.26,N/A,-737280,0.0,-999.0,67,0.00,,,0.00,Wunderground v.1.15,2013-07-17 21:16:00,
2013-07-17 17:21:00,87.4,75.5,30.26,WNW,291,0.0,0.0,68,0.00,,,0.00,Wunderground v.1.15,2013-07-17 21:21:00,
2013-07-17 17:26:00,87.2,76.2,30.25,WNW,293,0.0,-999.0,70,0.00,,,0.00,Wunderground v.1.15,2013-07-17 21:26:00,
2013-07-17 17:27:00,87.0,75.6,30.25,WNW,292,0.0,0.0,69,0.00,,,0.00,Wunderground v.1.15,2013-07-17 21:27:00,
2013-07-17 17:31:00,87.2,76.2,30.25,WNW,293,0.0,-999.0,70,0.00,,,0.00,Wunderground v.1.15,2013-07-17 21:31:00,
2013-07-17 17:32:00,86.0,75.1,30.25,WNW,290,0.0,0.0,70,0.00,,,0.00,Wunderground v.1.15,2013-07-17 21:32:00,
2013-07-17 17:36:00,87.2,76.2,30.25,WNW,293,0.0,-999.0,70,0.00,,,0.00,Wunderground v.1.15,2013-07-17 21:36:00,
2013-07-17 17:38:00,85.5,75.0,30.25,WNW,290,0.0,0.0,71,0.00,,,0.00,Wunderground v.1.15,2013-07-17 21:38:00,
2013-07-17 17:41:00,85.4,75.3,30.24,N/A,-737280,0.0,-999.0,72,0.00,,,0.00,Wunderground v.1.15,2013-07-17 21:41:00,
2013-07-17 17:43:00,84.9,75.3,30.25,WNW,290,0.0,0.0,73,0.00,,,0.00,Wunderground v.1.15,2013-07-17 21:43:00,
2013-07-17 17:46:00,85.4,75.3,30.24,N/A,-737280,0.0,-999.0,72,0.00,,,0.00,Wunderground v.1.15,2013-07-17 21:46:00,
2013-07-17 17:48:00,84.1,74.5,30.25,WNW,290,0.0,0.0,73,0.00,,,0.00,Wunderground v.1.15,2013-07-17 21:48:00,
2013-07-17 17:51:00,85.4,75.3,30.24,N/A,-737280,0.0,-999.0,72,0.00,,,0.00,Wunderground v.1.15,2013-07-17 21:51:00,
2013-07-17 17:54:00,83.1,74.7,30.25,WNW,290,0.0,0.0,76,0.00,,,0.00,Wunderground v.1.15,2013-07-17 21:54:00,
2013-07-17 17:56:00,83.3,75.7,30.25,WNW,293,0.0,-999.0,78,0.00,,,0.00,Wunderground v.1.15,2013-07-17 21:56:00,
2013-07-17 17:59:00,82.4,74.8,30.25,WNW,290,0.0,1.0,78,0.00,,,0.00,Wunderground v.1.15,2013-07-17 21:59:00,
2013-07-17 18:01:00,83.3,75.7,30.25,WNW,293,0.0,-999.0,78,0.00,,,0.00,Wunderground v.1.15,2013-07-17 22:01:00,
2013-07-17 18:05:00,81.7,74.2,30.25,WNW,290,0.0,1.0,78,0.00,,,0.00,Wunderground v.1.15,2013-07-17 22:05:00,
2013-07-17 18:06:00,83.3,75.7,30.25,WNW,293,0.0,-999.0,78,0.00,,,0.00,Wunderground v.1.15,2013-07-17 22:06:00,
2013-07-17 18:10:00,81.2,74.1,30.25,WNW,290,0.0,0.0,79,0.00,,,0.00,Wunderground v.1.15,2013-07-17 22:10:00,
2013-07-17 18:11:00,81.4,73.9,30.25,WNW,293,0.0,-999.0,78,0.00,,,0.00,Wunderground v.1.15,2013-07-17 22:11:00,
2013-07-17 18:15:00,80.7,73.2,30.25,WNW,290,0.0,0.0,78,0.00,,,0.00,Wunderground v.1.15,2013-07-17 22:15:00,
2013-07-17 18:16:00,81.4,73.9,30.25,WNW,293,0.0,-999.0,78,0.00,,,0.00,Wunderground v.1.15,2013-07-17 22:16:00,
2013-07-17 18:21:00,80.3,73.2,30.25,WNW,292,0.0,0.0,79,0.00,,,0.00,Wunderground v.1.15,2013-07-17 22:21:00,
2013-07-17 18:26:00,79.9,72.8,30.25,WNW,292,0.0,0.0,79,0.00,,,0.00,Wunderground v.1.15,2013-07-17 22:26:00,
2013-07-17 18:31:00,80.1,73.4,30.25,WNW,293,0.0,-999.0,80,0.00,,,0.00,Wunderground v.1.15,2013-07-17 22:31:00,
2013-07-17 18:32:00,79.5,72.8,30.25,WNW,292,0.0,0.0,80,0.00,,,0.00,Wunderground v.1.15,2013-07-17 22:32:00,
2013-07-17 18:36:00,80.1,73.4,30.25,WNW,293,0.0,-999.0,80,0.00,,,0.00,Wunderground v.1.15,2013-07-17 22:36:00,
2013-07-17 18:37:00,79.3,73.0,30.25,WNW,291,0.0,0.0,81,0.00,,,0.00,Wunderground v.1.15,2013-07-17 22:37:00,
2013-07-17 18:41:00,79.2,72.5,30.25,NW,315,0.0,-999.0,80,0.00,,,0.00,Wunderground v.1.15,2013-07-17 22:41:00,
2013-07-17 18:42:00,79.1,72.8,30.25,WNW,292,0.0,0.0,81,0.00,,,0.00,Wunderground v.1.15,2013-07-17 22:42:00,
2013-07-17 18:46:00,79.2,72.5,30.25,NW,315,0.0,-999.0,80,0.00,,,0.00,Wunderground v.1.15,2013-07-17 22:46:00,
2013-07-17 18:48:00,78.8,72.5,30.25,NW,319,0.0,1.0,81,0.00,,,0.00,Wunderground v.1.15,2013-07-17 22:48:00,
2013-07-17 18:51:00,79.2,72.5,30.25,NW,315,0.0,-999.0,80,0.00,,,0.00,Wunderground v.1.15,2013-07-17 22:51:00,
2013-07-17 18:53:00,78.7,72.4,30.25,NW,318,0.0,1.0,81,0.00,,,0.00,Wunderground v.1.15,2013-07-17 22:53:00,
2013-07-17 18:56:00,78.7,72.7,30.25,NW,315,0.0,-999.0,82,0.00,,,0.00,Wunderground v.1.15,2013-07-17 22:56:00,
2013-07-17 18:59:00,78.5,72.5,30.25,NW,318,0.0,1.0,82,0.00,,,0.00,Wunderground v.1.15,2013-07-17 22:59:00,
2013-07-17 19:01:00,78.7,72.7,30.25,NW,315,0.0,-999.0,82,0.00,,,0.00,Wunderground v.1.15,2013-07-17 23:01:00,
2013-07-17 19:04:00,78.3,72.3,30.25,NW,319,0.0,1.0,82,0.00,,,0.00,Wunderground v.1.15,2013-07-17 23:04:00,
2013-07-17 19:06:00,78.7,72.7,30.25,NW,315,0.0,-999.0,82,0.00,,,0.00,Wunderground v.1.15,2013-07-17 23:06:00,
2013-07-17 19:10:00,78.2,72.3,30.25,NW,316,0.0,0.0,82,0.00,,,0.00,Wunderground v.1.15,2013-07-17 23:10:00,
2013-07-17 19:11:00,78.2,72.3,30.25,NW,315,0.0,-999.0,82,0.00,,,0.00,Wunderground v.1.15,2013-07-17 23:11:00,
2013-07-17 19:15:00,78.1,72.2,30.25,NW,316,0.0,1.0,82,0.00,,,0.00,Wunderground v.1.15,2013-07-17 23:15:00,
2013-07-17 19:16:00,78.2,72.3,30.25,NW,315,0.0,-999.0,82,0.00,,,0.00,Wunderground v.1.15,2013-07-17 23:16:00,
2013-07-17 19:21:00,78.0,72.1,30.25,NW,316,0.0,1.0,82,0.00,,,0.00,Wunderground v.1.15,2013-07-17 23:21:00,
2013-07-17 19:26:00,77.9,72.0,30.25,NW,316,0.0,1.0,82,0.00,,,0.00,Wunderground v.1.15,2013-07-17 23:26:00,
2013-07-17 19:31:00,77.9,72.0,30.25,NW,315,0.0,-999.0,82,0.00,,,0.00,Wunderground v.1.15,2013-07-17 23:31:00,
2013-07-17 19:32:00,77.8,71.9,30.25,NW,316,0.0,1.0,82,0.00,,,0.00,Wunderground v.1.15,2013-07-17 23:32:00,
2013-07-17 19:36:00,77.9,72.0,30.25,NW,315,0.0,-999.0,82,0.00,,,0.00,Wunderground v.1.15,2013-07-17 23:36:00,
2013-07-17 19:37:00,77.7,71.8,30.26,NW,316,0.0,1.0,82,0.00,,,0.00,Wunderground v.1.15,2013-07-17 23:37:00,
2013-07-17 19:41:00,77.7,72.1,30.26,NW,315,0.0,-999.0,83,0.00,,,0.00,Wunderground v.1.15,2013-07-17 23:41:00,
2013-07-17 19:43:00,77.7,72.1,30.26,NW,316,0.0,0.0,83,0.00,,,0.00,Wunderground v.1.15,2013-07-17 23:43:00,
2013-07-17 19:46:00,77.7,72.1,30.26,NW,315,0.0,-999.0,83,0.00,,,0.00,Wunderground v.1.15,2013-07-17 23:46:00,
2013-07-17 19:48:00,77.5,71.9,30.26,NW,316,0.0,0.0,83,0.00,,,0.00,Wunderground v.1.15,2013-07-17 23:48:00,
2013-07-17 19:51:00,77.7,72.1,30.26,NW,315,0.0,-999.0,83,0.00,,,0.00,Wunderground v.1.15,2013-07-17 23:51:00,
2013-07-17 19:53:00,77.4,72.2,30.26,NW,317,0.0,1.0,84,0.00,,,0.00,Wunderground v.1.15,2013-07-17 23:53:00,
2013-07-17 19:56:00,77.4,72.5,30.26,NW,315,0.0,-999.0,85,0.00,,,0.00,Wunderground v.1.15,2013-07-17 23:56:00,
2013-07-17 19:59:00,77.2,72.0,30.26,NW,316,0.0,1.0,84,0.00,,,0.00,Wunderground v.1.15,2013-07-17 23:59:00,
2013-07-17 20:01:00,77.4,72.5,30.26,NW,315,0.0,-999.0,85,0.00,,,0.00,Wunderground v.1.15,2013-07-18 00:01:00,
2013-07-17 20:04:00,77.0,72.1,30.26,NW,316,0.0,0.0,85,0.00,,,0.00,Wunderground v.1.15,2013-07-18 00:04:00,
2013-07-17 20:06:00,77.4,72.5,30.26,NW,315,0.0,-999.0,85,0.00,,,0.00,Wunderground v.1.15,2013-07-18 00:06:00,
2013-07-17 20:10:00,76.8,71.9,30.26,NW,317,0.0,0.0,85,0.00,,,0.00,Wunderground v.1.15,2013-07-18 00:10:00,
2013-07-17 20:11:00,76.9,72.4,30.25,N/A,-737280,0.0,-999.0,86,0.00,,,0.00,Wunderground v.1.15,2013-07-18 00:11:00,
2013-07-17 20:15:00,76.6,72.1,30.25,NW,316,0.0,0.0,86,0.00,,,0.00,Wunderground v.1.15,2013-07-18 00:15:00,
2013-07-17 20:16:00,76.9,72.4,30.25,N/A,-737280,0.0,-999.0,86,0.00,,,0.00,Wunderground v.1.15,2013-07-18 00:16:00,
2013-07-17 20:20:00,76.5,72.0,30.25,NW,316,0.0,0.0,86,0.00,,,0.00,Wunderground v.1.15,2013-07-18 00:20:00,
2013-07-17 20:21:00,76.9,72.4,30.25,N/A,-737280,0.0,-999.0,86,0.00,,,0.00,Wunderground v.1.15,2013-07-18 00:21:00,
2013-07-17 20:26:00,76.3,72.1,30.25,NW,317,0.0,0.0,87,0.00,,,0.00,Wunderground v.1.15,2013-07-18 00:26:00,
2013-07-17 20:31:00,76.4,72.2,30.25,N/A,-737280,0.0,-999.0,87,0.00,,,0.00,Wunderground v.1.15,2013-07-18 00:31:00,
2013-07-17 20:32:00,76.2,72.0,30.25,NW,317,0.0,0.0,87,0.00,,,0.00,Wunderground v.1.15,2013-07-18 00:32:00,
2013-07-17 20:36:00,76.4,72.2,30.25,N/A,-737280,0.0,-999.0,87,0.00,,,0.00,Wunderground v.1.15,2013-07-18 00:36:00,
2013-07-17 20:37:00,76.1,71.9,30.25,NW,317,0.0,0.0,87,0.00,,,0.00,Wunderground v.1.15,2013-07-18 00:37:00,
2013-07-17 20:41:00,76.0,72.2,30.25,N/A,-737280,0.0,-999.0,88,0.00,,,0.00,Wunderground v.1.15,2013-07-18 00:41:00,
2013-07-17 20:42:00,75.9,71.8,30.26,NW,317,0.0,0.0,87,0.00,,,0.00,Wunderground v.1.15,2013-07-18 00:42:00,
2013-07-17 20:46:00,76.0,72.2,30.25,N/A,-737280,0.0,-999.0,88,0.00,,,0.00,Wunderground v.1.15,2013-07-18 00:46:00,
2013-07-17 20:47:00,75.8,72.0,30.26,NW,317,0.0,0.0,88,0.00,,,0.00,Wunderground v.1.15,2013-07-18 00:47:00,
2013-07-17 20:51:00,76.0,72.2,30.25,N/A,-737280,0.0,-999.0,88,0.00,,,0.00,Wunderground v.1.15,2013-07-18 00:51:00,
2013-07-17 20:53:00,75.7,71.9,30.25,NW,316,0.0,0.0,88,0.00,,,0.00,Wunderground v.1.15,2013-07-18 00:53:00,
2013-07-17 20:56:00,75.7,71.9,30.25,NW,315,0.0,-999.0,88,0.00,,,0.00,Wunderground v.1.15,2013-07-18 00:56:00,
2013-07-17 20:58:00,75.6,71.8,30.25,NW,316,0.0,0.0,88,0.00,,,0.00,Wunderground v.1.15,2013-07-18 00:58:00,
2013-07-17 21:01:00,75.7,71.9,30.25,NW,315,0.0,-999.0,88,0.00,,,0.00,Wunderground v.1.15,2013-07-18 01:01:00,
2013-07-17 21:04:00,75.6,71.8,30.25,NW,316,0.0,0.0,88,0.00,,,0.00,Wunderground v.1.15,2013-07-18 01:04:00,
2013-07-17 21:06:00,75.7,71.9,30.25,NW,315,0.0,-999.0,88,0.00,,,0.00,Wunderground v.1.15,2013-07-18 01:06:00,
2013-07-17 21:10:00,75.2,71.7,30.26,NW,316,0.0,0.0,89,0.00,,,0.00,Wunderground v.1.15,2013-07-18 01:10:00,
2013-07-17 21:11:00,75.3,72.2,30.26,NW,315,0.0,-999.0,90,0.00,,,0.00,Wunderground v.1.15,2013-07-18 01:11:00,
2013-07-17 21:15:00,74.8,71.7,30.26,NW,316,0.0,0.0,90,0.00,,,0.00,Wunderground v.1.15,2013-07-18 01:15:00,
2013-07-17 21:16:00,75.3,72.2,30.26,NW,315,0.0,-999.0,90,0.00,,,0.00,Wunderground v.1.15,2013-07-18 01:16:00,
2013-07-17 21:21:00,74.6,71.5,30.26,NW,316,0.0,0.0,90,0.00,,,0.00,Wunderground v.1.15,2013-07-18 01:21:00,
2013-07-17 21:26:00,74.6,71.5,30.26,NW,317,0.0,0.0,90,0.00,,,0.00,Wunderground v.1.15,2013-07-18 01:26:00,
2013-07-17 21:31:00,74.6,71.5,30.26,N/A,-737280,0.0,-999.0,90,0.00,,,0.00,Wunderground v.1.15,2013-07-18 01:31:00,
2013-07-17 21:32:00,74.6,71.5,30.26,NW,310,0.0,0.0,90,0.00,,,0.00,Wunderground v.1.15,2013-07-18 01:32:00,
2013-07-17 21:36:00,74.6,71.5,30.26,N/A,-737280,0.0,-999.0,90,0.00,,,0.00,Wunderground v.1.15,2013-07-18 01:36:00,
2013-07-17 21:37:00,74.5,71.4,30.26,NW,309,0.0,0.0,90,0.00,,,0.00,Wunderground v.1.15,2013-07-18 01:37:00,
2013-07-17 21:41:00,74.5,71.4,30.26,N/A,-737280,0.0,-999.0,90,0.00,,,0.00,Wunderground v.1.15,2013-07-18 01:41:00,
2013-07-17 21:42:00,74.5,71.4,30.26,WNW,293,0.0,0.0,90,0.00,,,0.00,Wunderground v.1.15,2013-07-18 01:42:00,
2013-07-17 21:46:00,74.5,71.4,30.26,N/A,-737280,0.0,-999.0,90,0.00,,,0.00,Wunderground v.1.15,2013-07-18 01:46:00,
2013-07-17 21:48:00,74.6,71.5,30.27,WNW,292,0.0,0.0,90,0.00,,,0.00,Wunderground v.1.15,2013-07-18 01:48:00,
2013-07-17 21:51:00,74.5,71.4,30.26,N/A,-737280,0.0,-999.0,90,0.00,,,0.00,Wunderground v.1.15,2013-07-18 01:51:00,
2013-07-17 21:53:00,74.6,71.5,30.27,WNW,293,0.0,0.0,90,0.00,,,0.00,Wunderground v.1.15,2013-07-18 01:53:00,
2013-07-17 21:56:00,74.5,71.4,30.27,N/A,-737280,0.0,-999.0,90,0.00,,,0.00,Wunderground v.1.15,2013-07-18 01:56:00,
2013-07-17 21:58:00,74.5,71.4,30.27,WNW,293,0.0,0.0,90,0.00,,,0.00,Wunderground v.1.15,2013-07-18 01:58:00,
2013-07-17 22:01:00,74.5,71.4,30.27,N/A,-737280,0.0,-999.0,90,0.00,,,0.00,Wunderground v.1.15,2013-07-18 02:01:00,
2013-07-17 22:04:00,74.4,71.3,30.27,WNW,293,0.0,0.0,90,0.00,,,0.00,Wunderground v.1.15,2013-07-18 02:04:00,
2013-07-17 22:06:00,74.5,71.4,30.27,N/A,-737280,0.0,-999.0,90,0.00,,,0.00,Wunderground v.1.15,2013-07-18 02:06:00,
2013-07-17 22:09:00,74.3,71.2,30.27,WNW,293,0.0,0.0,90,0.00,,,0.00,Wunderground v.1.15,2013-07-18 02:09:00,
2013-07-17 22:11:00,74.4,71.3,30.27,N/A,-737280,0.0,-999.0,90,0.00,,,0.00,Wunderground v.1.15,2013-07-18 02:11:00,
2013-07-17 22:15:00,74.4,71.3,30.27,WNW,293,0.0,0.0,90,0.00,,,0.00,Wunderground v.1.15,2013-07-18 02:15:00,
2013-07-17 22:16:00,74.4,71.3,30.27,N/A,-737280,0.0,-999.0,90,0.00,,,0.00,Wunderground v.1.15,2013-07-18 02:16:00,
2013-07-17 22:21:00,74.6,71.1,30.27,WNW,293,0.0,0.0,89,0.00,,,0.00,Wunderground v.1.15,2013-07-18 02:21:00,
2013-07-17 22:26:00,74.6,71.1,30.27,N/A,-737280,0.0,-999.0,89,0.00,,,0.00,Wunderground v.1.15,2013-07-18 02:26:00,
2013-07-17 22:27:00,74.8,71.3,30.27,WNW,293,0.0,0.0,89,0.00,,,0.00,Wunderground v.1.15,2013-07-18 02:27:00,
2013-07-17 22:31:00,74.6,71.1,30.27,N/A,-737280,0.0,-999.0,89,0.00,,,0.00,Wunderground v.1.15,2013-07-18 02:31:00,
2013-07-17 22:32:00,74.9,71.4,30.27,WNW,293,0.0,0.0,89,0.00,,,0.00,Wunderground v.1.15,2013-07-18 02:32:00,
2013-07-17 22:36:00,74.6,71.1,30.27,N/A,-737280,0.0,-999.0,89,0.00,,,0.00,Wunderground v.1.15,2013-07-18 02:36:00,
2013-07-17 22:37:00,74.8,71.3,30.28,WNW,293,0.0,0.0,89,0.00,,,0.00,Wunderground v.1.15,2013-07-18 02:37:00,
2013-07-17 22:41:00,74.8,71.3,30.27,N/A,-737280,0.0,-999.0,89,0.00,,,0.00,Wunderground v.1.15,2013-07-18 02:41:00,
2013-07-17 22:43:00,74.7,71.2,30.27,WNW,293,0.0,0.0,89,0.00,,,0.00,Wunderground v.1.15,2013-07-18 02:43:00,
2013-07-17 22:46:00,74.8,71.3,30.27,N/A,-737280,0.0,-999.0,89,0.00,,,0.00,Wunderground v.1.15,2013-07-18 02:46:00,
2013-07-17 22:48:00,74.6,71.1,30.27,WNW,291,0.0,0.0,89,0.00,,,0.00,Wunderground v.1.15,2013-07-18 02:48:00,
2013-07-17 22:51:00,74.8,71.3,30.27,N/A,-737280,0.0,-999.0,89,0.00,,,0.00,Wunderground v.1.15,2013-07-18 02:51:00,
2013-07-17 22:54:00,74.4,71.3,30.28,WNW,293,0.0,0.0,90,0.00,,,0.00,Wunderground v.1.15,2013-07-18 02:54:00,
2013-07-17 22:56:00,74.4,71.3,30.27,N/A,-737280,0.0,-999.0,90,0.00,,,0.00,Wunderground v.1.15,2013-07-18 02:56:00,
2013-07-17 22:59:00,74.3,71.2,30.27,WNW,292,0.0,0.0,90,0.00,,,0.00,Wunderground v.1.15,2013-07-18 02:59:00,
2013-07-17 23:01:00,74.4,71.3,30.27,N/A,-737280,0.0,-999.0,90,0.00,,,0.00,Wunderground v.1.15,2013-07-18 03:01:00,
2013-07-17 23:04:00,74.2,71.1,30.27,WNW,291,0.0,0.0,90,0.00,,,0.00,Wunderground v.1.15,2013-07-18 03:04:00,
2013-07-17 23:06:00,74.4,71.3,30.27,N/A,-737280,0.0,-999.0,90,0.00,,,0.00,Wunderground v.1.15,2013-07-18 03:06:00,
2013-07-17 23:10:00,74.0,70.9,30.27,WNW,292,0.0,0.0,90,0.00,,,0.00,Wunderground v.1.15,2013-07-18 03:10:00,
2013-07-17 23:11:00,74.1,71.3,30.27,N/A,-737280,0.0,-999.0,91,0.00,,,0.00,Wunderground v.1.15,2013-07-18 03:11:00,
2013-07-17 23:15:00,73.9,71.1,30.27,WNW,292,0.0,0.0,91,0.00,,,0.00,Wunderground v.1.15,2013-07-18 03:15:00,
2013-07-17 23:16:00,74.1,71.3,30.27,N/A,-737280,0.0,-999.0,91,0.00,,,0.00,Wunderground v.1.15,2013-07-18 03:16:00,
2013-07-17 23:20:00,73.7,70.9,30.27,West,274,0.0,0.0,91,0.00,,,0.00,Wunderground v.1.15,2013-07-18 03:20:00,
2013-07-17 23:21:00,74.1,71.3,30.27,N/A,-737280,0.0,-999.0,91,0.00,,,0.00,Wunderground v.1.15,2013-07-18 03:21:00,
2013-07-17 23:26:00,73.3,70.8,30.27,West,275,0.0,0.0,92,0.00,,,0.00,Wunderground v.1.15,2013-07-18 03:26:00,
2013-07-17 23:31:00,73.5,71.0,30.27,N/A,-737280,0.0,-999.0,92,0.00,,,0.00,Wunderground v.1.15,2013-07-18 03:31:00,
2013-07-17 23:32:00,72.8,70.3,30.27,West,275,0.0,0.0,92,0.00,,,0.00,Wunderground v.1.15,2013-07-18 03:32:00,
2013-07-17 23:36:00,73.5,71.0,30.27,N/A,-737280,0.0,-999.0,92,0.00,,,0.00,Wunderground v.1.15,2013-07-18 03:36:00,
2013-07-17 23:38:00,72.5,70.4,30.27,West,275,0.0,0.0,93,0.00,,,0.00,Wunderground v.1.15,2013-07-18 03:38:00,
2013-07-17 23:41:00,72.6,70.8,30.27,N/A,-737280,0.0,-999.0,94,0.00,,,0.00,Wunderground v.1.15,2013-07-18 03:41:00,
2013-07-17 23:43:00,72.4,70.6,30.27,West,275,0.0,0.0,94,0.00,,,0.00,Wunderground v.1.15,2013-07-18 03:43:00,
2013-07-17 23:46:00,72.6,70.8,30.27,N/A,-737280,0.0,-999.0,94,0.00,,,0.00,Wunderground v.1.15,2013-07-18 03:46:00,
2013-07-17 23:49:00,72.4,70.6,30.27,West,275,0.0,0.0,94,0.00,,,0.00,Wunderground v.1.15,2013-07-18 03:49:00,
2013-07-17 23:51:00,72.6,70.8,30.27,N/A,-737280,0.0,-999.0,94,0.00,,,0.00,Wunderground v.1.15,2013-07-18 03:51:00,
2013-07-17 23:55:00,72.4,70.6,30.26,West,275,0.0,0.0,94,0.00,,,0.00,Wunderground v.1.15,2013-07-18 03:55:00,
2013-07-17 23:56:00,72.4,70.6,30.26,N/A,-737280,0.0,-999.0,94,0.00,,,0.00,Wunderground v.1.15,2013-07-18 03:56:00,